Iliamna, AK (99606)

3:31 AM AKDT on July 25, 2014 (GMT -0800)
Iliamna (PAIL) Elev 161 ft | 59.75 °N, 154.91 °W | Change Station

Current weather conditions updated 38 minutes ago

Mostly Cloudy
Mostly Cloudy
54 °F
Feels Like 54 °F
N
8
Wind Variable Wind from NW

Today is forecast to be Warmer than yesterday.

Today
High -- | Low -- °F
--% Chance of Precip.
Yesterday
High -- | Low -- °F
Precip. -- in
5:49 AM 11:04 PM
Waning Crescent, 2% visible
Pressure 29.84 in
Visibility 10.0 miles
Clouds Few 6500 ft
Mostly Cloudy 9000 ft
Dew Point 51 °F
Humidity 90%
Rainfall 0.00 in
Snow Depth Not available.
UV 0 out of 12
Pollen Not available.
Air Quality Not available.
Flu Activity Not available.
METAR PAIL 251053Z AUTO 31007KT 10SM FEW065 BKN090 12/11 A2984 RMK AO2 SLP105 T01220106 TSNO

More Conditions Fewer Conditions

Pressure 29.84 in
Visibility 10.0 miles
Clouds Few 6500 ft
Mostly Cloudy 9000 ft
Dew Point 51 °F
Humidity 90%
Rainfall 0.00 in
Snow Depth Not available.
UV 0 out of 12
Pollen Not available.
Air Quality Not available.
Flu Activity Not available.
METAR PAIL 251053Z AUTO 31007KT 10SM FEW065 BKN090 12/11 A2984 RMK AO2 SLP105 T01220106 TSNO

More Conditions Fewer Conditions

10-Day Weather Forecast

Almanac

Astronomy

Jul. 25, 2014 Rise Set
Actual Time 5:49 AM AKDT 11:04 PM AKDT
Civil Twilight 4:44 AM AKDT 12:08 AM AKDT
Nautical Twilight 3:00 AM AKDT 1:55 AM AKDT
Astronomical Twilight Sun does not rise Sun does not rise
Moon 5:11 AM AKDT 9:48 PM AKDT
Length of Visible Light 19h 23m
Length of Day
17h 15m
Tomorrow will be 4m 24s shorter.
Waning Crescent, 2% of the Moon is Illuminated
Today
Waning Crescent
Jul 26
New
Aug 3
First Quarter
Aug 10
Full
Aug 17
Last Quarter

Today's Extremes

State Highs State Lows

Community

WunderPhotos

Upload Photos

1,737,289 photos uploaded!

Nearby

Snow Depth

Station Depth Elevation
Mcneil Canyon 1 in 1320 ft
Port Graham 0 in 300 ft
MF Bradley River 28 in 2300 ft
Nuka Glacier 1 in 1250 ft
Cooper Lake 12 in 1200 ft

Earthquake Activity

City Distance Mag. Time & Date
No recent earthquake activity has been reported nearby.
Minimum magnitude displayed is 2.5.

Coastal Water Temperatures

Place Temperature
No Stations Reporting

Nearby Weather Stations

Station Location Temp. Windchill Dew Point Humidity Wind Precip. Elev Updated Type
HADS UPPER TALARIK C NR ILIAMNA AK , Pedro Bay, AK 47 °F 47 °F - - North  at  - 0.00 in / hr 556 ft 2:00 AM AKDT MADIS
HADS KOKTULI R NR ILIAMNA AK , Iliamna, AK 52 °F - - - North  at  - 0.01 in / hr 851 ft 2:00 AM AKDT MADIS
Slop Bucket Bay Lake Iliamna AK, Iliamna, AK 51.3 °F - 49 °F 91% North  at  3.1 mph 0.00 in / hr 43 ft 3:30 AM AKDT Rapid Fire

Show More Stations Show Fewer Stations